sensor_id;sensor_type;location;lat;lon;timestamp;P1;durP1;ratioP1;P2;durP2;ratioP2
11125;SDS011;5617;54.046;10.676;2022-10-16T00:00:23;4.20;;;3.83;;
11125;SDS011;5617;54.046;10.676;2022-10-16T00:02:31;5.07;;;3.83;;
11125;SDS011;5617;54.046;10.676;2022-10-16T00:04:40;5.47;;;4.23;;
11125;SDS011;5617;54.046;10.676;2022-10-16T00:06:51;4.00;;;3.70;;
11125;SDS011;5617;54.046;10.676;2022-10-16T00:08:59;4.27;;;3.87;;
11125;SDS011;5617;54.046;10.676;2022-10-16T00:11:07;5.27;;;3.97;;
11125;SDS011;5617;54.046;10.676;2022-10-16T00:13:17;3.93;;;3.63;;
11125;SDS011;5617;54.046;10.676;2022-10-16T00:15:27;5.37;;;3.93;;
11125;SDS011;5617;54.046;10.676;2022-10-16T00:17:35;4.93;;;4.40;;
11125;SDS011;5617;54.046;10.676;2022-10-16T00:19:44;6.20;;;3.90;;
11125;SDS011;5617;54.046;10.676;2022-10-16T00:21:52;5.07;;;4.20;;
11125;SDS011;5617;54.046;10.676;2022-10-16T00:24:01;6.70;;;4.50;;
11125;SDS011;5617;54.046;10.676;2022-10-16T00:26:15;5.27;;;3.97;;
11125;SDS011;5617;54.046;10.676;2022-10-16T00:28:24;4.73;;;3.70;;
11125;SDS011;5617;54.046;10.676;2022-10-16T00:30:32;4.10;;;3.77;;
11125;SDS011;5617;54.046;10.676;2022-10-16T00:32:40;5.20;;;3.97;;
11125;SDS011;5617;54.046;10.676;2022-10-16T00:34:49;5.77;;;4.07;;
11125;SDS011;5617;54.046;10.676;2022-10-16T00:36:56;4.47;;;4.07;;
11125;SDS011;5617;54.046;10.676;2022-10-16T00:39:04;4.30;;;3.90;;
11125;SDS011;5617;54.046;10.676;2022-10-16T00:41:13;6.60;;;4.10;;
11125;SDS011;5617;54.046;10.676;2022-10-16T00:43:33;4.13;;;3.77;;
11125;SDS011;5617;54.046;10.676;2022-10-16T00:45:46;4.40;;;4.00;;
11125;SDS011;5617;54.046;10.676;2022-10-16T00:47:54;7.53;;;4.47;;
11125;SDS011;5617;54.046;10.676;2022-10-16T00:50:06;5.67;;;4.20;;
11125;SDS011;5617;54.046;10.676;2022-10-16T00:52:18;4.40;;;4.00;;
11125;SDS011;5617;54.046;10.676;2022-10-16T00:54:27;4.93;;;4.37;;
11125;SDS011;5617;54.046;10.676;2022-10-16T00:56:36;4.63;;;4.20;;
11125;SDS011;5617;54.046;10.676;2022-10-16T00:58:44;4.00;;;3.60;;
11125;SDS011;5617;54.046;10.676;2022-10-16T01:00:52;4.40;;;4.00;;
11125;SDS011;5617;54.046;10.676;2022-10-16T01:03:00;4.77;;;4.20;;
11125;SDS011;5617;54.046;10.676;2022-10-16T01:05:11;4.90;;;4.10;;
11125;SDS011;5617;54.046;10.676;2022-10-16T01:07:22;4.93;;;4.50;;
11125;SDS011;5617;54.046;10.676;2022-10-16T01:09:37;6.17;;;4.40;;
11125;SDS011;5617;54.046;10.676;2022-10-16T01:11:56;4.80;;;4.30;;
11125;SDS011;5617;54.046;10.676;2022-10-16T01:14:11;5.30;;;4.40;;
11125;SDS011;5617;54.046;10.676;2022-10-16T01:16:29;6.30;;;4.50;;
11125;SDS011;5617;54.046;10.676;2022-10-16T01:18:43;6.73;;;4.33;;
11125;SDS011;5617;54.046;10.676;2022-10-16T01:20:54;4.90;;;4.40;;
11125;SDS011;5617;54.046;10.676;2022-10-16T01:23:07;7.03;;;4.27;;
11125;SDS011;5617;54.046;10.676;2022-10-16T01:25:30;5.43;;;4.57;;
11125;SDS011;5617;54.046;10.676;2022-10-16T01:27:48;5.87;;;4.67;;
11125;SDS011;5617;54.046;10.676;2022-10-16T01:29:57;5.27;;;4.80;;
11125;SDS011;5617;54.046;10.676;2022-10-16T01:32:14;4.90;;;4.40;;
11125;SDS011;5617;54.046;10.676;2022-10-16T01:34:28;4.83;;;4.37;;
11125;SDS011;5617;54.046;10.676;2022-10-16T01:36:41;4.60;;;4.17;;
11125;SDS011;5617;54.046;10.676;2022-10-16T01:38:53;7.03;;;4.47;;
11125;SDS011;5617;54.046;10.676;2022-10-16T01:41:08;4.90;;;4.40;;
11125;SDS011;5617;54.046;10.676;2022-10-16T01:43:20;4.80;;;4.37;;
11125;SDS011;5617;54.046;10.676;2022-10-16T01:45:31;5.20;;;4.60;;
11125;SDS011;5617;54.046;10.676;2022-10-16T01:47:41;5.20;;;4.63;;
11125;SDS011;5617;54.046;10.676;2022-10-16T01:49:49;5.17;;;4.63;;
11125;SDS011;5617;54.046;10.676;2022-10-16T01:51:59;5.13;;;4.40;;
11125;SDS011;5617;54.046;10.676;2022-10-16T01:54:12;6.07;;;4.80;;
11125;SDS011;5617;54.046;10.676;2022-10-16T01:56:23;6.23;;;4.67;;
11125;SDS011;5617;54.046;10.676;2022-10-16T01:58:35;4.40;;;4.00;;
11125;SDS011;5617;54.046;10.676;2022-10-16T02:00:46;4.67;;;4.27;;
11125;SDS011;5617;54.046;10.676;2022-10-16T02:02:55;5.53;;;4.60;;
11125;SDS011;5617;54.046;10.676;2022-10-16T02:05:08;7.07;;;4.27;;
11125;SDS011;5617;54.046;10.676;2022-10-16T02:07:22;5.80;;;4.47;;
11125;SDS011;5617;54.046;10.676;2022-10-16T02:09:30;4.73;;;4.33;;
11125;SDS011;5617;54.046;10.676;2022-10-16T02:11:39;5.13;;;4.63;;
11125;SDS011;5617;54.046;10.676;2022-10-16T02:13:50;5.07;;;3.80;;
11125;SDS011;5617;54.046;10.676;2022-10-16T02:16:02;6.60;;;4.00;;
11125;SDS011;5617;54.046;10.676;2022-10-16T02:18:10;6.13;;;4.20;;
11125;SDS011;5617;54.046;10.676;2022-10-16T02:20:19;4.70;;;3.93;;
11125;SDS011;5617;54.046;10.676;2022-10-16T02:22:33;5.37;;;3.97;;
11125;SDS011;5617;54.046;10.676;2022-10-16T02:24:46;4.43;;;3.77;;
11125;SDS011;5617;54.046;10.676;2022-10-16T02:27:00;4.30;;;3.90;;
11125;SDS011;5617;54.046;10.676;2022-10-16T02:29:17;4.43;;;4.00;;
11125;SDS011;5617;54.046;10.676;2022-10-16T02:31:28;5.10;;;3.87;;
11125;SDS011;5617;54.046;10.676;2022-10-16T02:33:40;5.10;;;4.00;;
11125;SDS011;5617;54.046;10.676;2022-10-16T02:35:50;4.67;;;4.23;;
11125;SDS011;5617;54.046;10.676;2022-10-16T02:37:58;4.30;;;4.00;;
11125;SDS011;5617;54.046;10.676;2022-10-16T02:40:06;4.23;;;3.63;;
11125;SDS011;5617;54.046;10.676;2022-10-16T02:42:14;4.40;;;3.90;;
11125;SDS011;5617;54.046;10.676;2022-10-16T02:44:25;4.23;;;3.83;;
11125;SDS011;5617;54.046;10.676;2022-10-16T02:46:33;3.80;;;3.50;;
11125;SDS011;5617;54.046;10.676;2022-10-16T02:48:41;5.53;;;3.63;;
11125;SDS011;5617;54.046;10.676;2022-10-16T02:50:49;4.87;;;3.90;;
11125;SDS011;5617;54.046;10.676;2022-10-16T02:52:56;4.47;;;3.80;;
11125;SDS011;5617;54.046;10.676;2022-10-16T02:55:06;7.33;;;4.13;;
11125;SDS011;5617;54.046;10.676;2022-10-16T02:57:15;4.97;;;3.50;;
11125;SDS011;5617;54.046;10.676;2022-10-16T02:59:28;4.43;;;3.90;;
11125;SDS011;5617;54.046;10.676;2022-10-16T03:01:39;3.90;;;3.20;;
11125;SDS011;5617;54.046;10.676;2022-10-16T03:03:47;3.27;;;3.07;;
11125;SDS011;5617;54.046;10.676;2022-10-16T03:05:56;5.13;;;3.30;;
11125;SDS011;5617;54.046;10.676;2022-10-16T03:08:05;4.10;;;3.63;;
11125;SDS011;5617;54.046;10.676;2022-10-16T03:10:14;3.50;;;3.20;;
11125;SDS011;5617;54.046;10.676;2022-10-16T03:12:24;3.53;;;3.30;;
11125;SDS011;5617;54.046;10.676;2022-10-16T03:14:34;5.40;;;3.30;;
11125;SDS011;5617;54.046;10.676;2022-10-16T03:16:42;3.90;;;3.30;;
11125;SDS011;5617;54.046;10.676;2022-10-16T03:18:51;3.83;;;3.23;;
11125;SDS011;5617;54.046;10.676;2022-10-16T03:21:00;4.40;;;3.03;;
11125;SDS011;5617;54.046;10.676;2022-10-16T03:23:09;3.40;;;3.10;;
11125;SDS011;5617;54.046;10.676;2022-10-16T03:25:17;3.40;;;3.10;;
11125;SDS011;5617;54.046;10.676;2022-10-16T03:27:26;3.17;;;2.70;;
11125;SDS011;5617;54.046;10.676;2022-10-16T03:29:35;3.53;;;3.07;;
11125;SDS011;5617;54.046;10.676;2022-10-16T03:31:43;3.57;;;2.87;;
11125;SDS011;5617;54.046;10.676;2022-10-16T03:33:53;3.10;;;2.60;;
11125;SDS011;5617;54.046;10.676;2022-10-16T03:36:02;4.63;;;2.80;;
11125;SDS011;5617;54.046;10.676;2022-10-16T03:38:10;2.97;;;2.70;;
11125;SDS011;5617;54.046;10.676;2022-10-16T03:40:18;4.07;;;2.90;;
11125;SDS011;5617;54.046;10.676;2022-10-16T03:42:25;3.83;;;2.70;;
11125;SDS011;5617;54.046;10.676;2022-10-16T03:44:33;4.23;;;2.90;;
11125;SDS011;5617;54.046;10.676;2022-10-16T03:46:42;5.47;;;2.70;;
11125;SDS011;5617;54.046;10.676;2022-10-16T03:48:50;4.20;;;2.73;;
11125;SDS011;5617;54.046;10.676;2022-10-16T03:50:57;5.67;;;2.80;;
11125;SDS011;5617;54.046;10.676;2022-10-16T03:53:06;3.13;;;2.83;;
11125;SDS011;5617;54.046;10.676;2022-10-16T03:55:13;3.43;;;2.63;;
11125;SDS011;5617;54.046;10.676;2022-10-16T03:57:21;5.10;;;3.20;;
11125;SDS011;5617;54.046;10.676;2022-10-16T03:59:29;5.90;;;2.87;;
11125;SDS011;5617;54.046;10.676;2022-10-16T04:01:36;3.60;;;2.73;;
11125;SDS011;5617;54.046;10.676;2022-10-16T04:03:46;3.10;;;2.80;;
11125;SDS011;5617;54.046;10.676;2022-10-16T04:05:53;3.27;;;2.60;;
11125;SDS011;5617;54.046;10.676;2022-10-16T04:08:01;3.83;;;2.63;;
11125;SDS011;5617;54.046;10.676;2022-10-16T04:10:08;5.63;;;2.90;;
11125;SDS011;5617;54.046;10.676;2022-10-16T04:12:16;2.43;;;2.10;;
11125;SDS011;5617;54.046;10.676;2022-10-16T04:14:24;2.97;;;2.10;;
11125;SDS011;5617;54.046;10.676;2022-10-16T04:16:32;2.37;;;2.17;;
11125;SDS011;5617;54.046;10.676;2022-10-16T04:18:39;2.73;;;2.10;;
11125;SDS011;5617;54.046;10.676;2022-10-16T04:20:49;5.73;;;2.37;;
11125;SDS011;5617;54.046;10.676;2022-10-16T04:22:56;3.10;;;2.07;;
11125;SDS011;5617;54.046;10.676;2022-10-16T04:25:04;4.30;;;2.10;;
11125;SDS011;5617;54.046;10.676;2022-10-16T04:27:13;4.07;;;2.17;;
11125;SDS011;5617;54.046;10.676;2022-10-16T04:29:21;5.57;;;2.43;;
11125;SDS011;5617;54.046;10.676;2022-10-16T04:31:28;3.20;;;2.00;;
11125;SDS011;5617;54.046;10.676;2022-10-16T04:33:36;2.50;;;2.00;;
11125;SDS011;5617;54.046;10.676;2022-10-16T04:35:44;3.00;;;2.00;;
11125;SDS011;5617;54.046;10.676;2022-10-16T04:37:53;2.07;;;1.67;;
11125;SDS011;5617;54.046;10.676;2022-10-16T04:40:01;2.40;;;2.00;;
11125;SDS011;5617;54.046;10.676;2022-10-16T04:42:09;3.00;;;1.67;;
11125;SDS011;5617;54.046;10.676;2022-10-16T04:44:16;4.07;;;2.17;;
11125;SDS011;5617;54.046;10.676;2022-10-16T04:46:24;3.83;;;1.70;;
11125;SDS011;5617;54.046;10.676;2022-10-16T04:48:32;2.00;;;1.73;;
11125;SDS011;5617;54.046;10.676;2022-10-16T04:50:39;2.23;;;1.60;;
11125;SDS011;5617;54.046;10.676;2022-10-16T04:52:48;7.90;;;1.80;;
11125;SDS011;5617;54.046;10.676;2022-10-16T04:54:57;1.80;;;1.60;;
11125;SDS011;5617;54.046;10.676;2022-10-16T04:57:07;2.20;;;1.60;;
11125;SDS011;5617;54.046;10.676;2022-10-16T04:59:16;1.70;;;1.60;;
11125;SDS011;5617;54.046;10.676;2022-10-16T05:01:24;2.70;;;1.70;;
11125;SDS011;5617;54.046;10.676;2022-10-16T05:03:31;2.10;;;1.20;;
11125;SDS011;5617;54.046;10.676;2022-10-16T05:05:42;2.73;;;1.50;;
11125;SDS011;5617;54.046;10.676;2022-10-16T05:07:50;1.97;;;1.50;;
11125;SDS011;5617;54.046;10.676;2022-10-16T05:09:59;2.97;;;1.70;;
11125;SDS011;5617;54.046;10.676;2022-10-16T05:12:07;4.97;;;1.47;;
11125;SDS011;5617;54.046;10.676;2022-10-16T05:14:14;2.33;;;1.50;;
11125;SDS011;5617;54.046;10.676;2022-10-16T05:16:22;1.67;;;1.40;;
11125;SDS011;5617;54.046;10.676;2022-10-16T05:18:30;2.57;;;1.50;;
11125;SDS011;5617;54.046;10.676;2022-10-16T05:20:38;1.87;;;1.10;;
11125;SDS011;5617;54.046;10.676;2022-10-16T05:22:45;3.27;;;1.63;;
11125;SDS011;5617;54.046;10.676;2022-10-16T05:24:54;2.30;;;1.50;;
11125;SDS011;5617;54.046;10.676;2022-10-16T05:27:03;3.60;;;1.43;;
11125;SDS011;5617;54.046;10.676;2022-10-16T05:29:11;2.27;;;1.30;;
11125;SDS011;5617;54.046;10.676;2022-10-16T05:31:18;2.47;;;1.30;;
11125;SDS011;5617;54.046;10.676;2022-10-16T05:33:26;3.53;;;1.43;;
11125;SDS011;5617;54.046;10.676;2022-10-16T05:35:34;1.80;;;1.27;;
11125;SDS011;5617;54.046;10.676;2022-10-16T05:37:42;2.00;;;1.30;;
11125;SDS011;5617;54.046;10.676;2022-10-16T05:39:50;4.23;;;1.30;;
11125;SDS011;5617;54.046;10.676;2022-10-16T05:41:57;1.40;;;1.30;;
11125;SDS011;5617;54.046;10.676;2022-10-16T05:44:07;2.03;;;1.23;;
11125;SDS011;5617;54.046;10.676;2022-10-16T05:46:14;3.30;;;1.20;;
11125;SDS011;5617;54.046;10.676;2022-10-16T05:48:23;2.67;;;1.53;;
11125;SDS011;5617;54.046;10.676;2022-10-16T05:50:31;2.87;;;1.30;;
11125;SDS011;5617;54.046;10.676;2022-10-16T05:52:39;1.23;;;1.13;;
11125;SDS011;5617;54.046;10.676;2022-10-16T05:54:47;2.40;;;1.30;;
11125;SDS011;5617;54.046;10.676;2022-10-16T05:56:54;3.60;;;1.60;;
11125;SDS011;5617;54.046;10.676;2022-10-16T05:59:02;3.97;;;1.40;;
11125;SDS011;5617;54.046;10.676;2022-10-16T06:01:12;1.40;;;1.30;;
11125;SDS011;5617;54.046;10.676;2022-10-16T06:03:21;1.77;;;1.33;;
11125;SDS011;5617;54.046;10.676;2022-10-16T06:05:29;2.63;;;1.30;;
11125;SDS011;5617;54.046;10.676;2022-10-16T06:07:37;3.47;;;1.40;;
11125;SDS011;5617;54.046;10.676;2022-10-16T06:09:47;3.67;;;1.60;;
11125;SDS011;5617;54.046;10.676;2022-10-16T06:11:55;1.80;;;1.50;;
11125;SDS011;5617;54.046;10.676;2022-10-16T06:14:03;2.83;;;1.30;;
11125;SDS011;5617;54.046;10.676;2022-10-16T06:16:14;3.43;;;1.50;;
11125;SDS011;5617;54.046;10.676;2022-10-16T06:18:21;2.33;;;1.20;;
11125;SDS011;5617;54.046;10.676;2022-10-16T06:20:29;2.20;;;1.30;;
11125;SDS011;5617;54.046;10.676;2022-10-16T06:22:36;2.47;;;1.53;;
11125;SDS011;5617;54.046;10.676;2022-10-16T06:24:44;3.60;;;1.80;;
11125;SDS011;5617;54.046;10.676;2022-10-16T06:26:53;1.33;;;1.13;;
11125;SDS011;5617;54.046;10.676;2022-10-16T06:29:01;2.33;;;1.20;;
11125;SDS011;5617;54.046;10.676;2022-10-16T06:31:09;4.03;;;1.40;;
11125;SDS011;5617;54.046;10.676;2022-10-16T06:33:19;2.50;;;1.43;;
11125;SDS011;5617;54.046;10.676;2022-10-16T06:35:27;1.37;;;1.20;;
11125;SDS011;5617;54.046;10.676;2022-10-16T06:37:37;2.83;;;1.30;;
11125;SDS011;5617;54.046;10.676;2022-10-16T06:39:45;1.20;;;1.07;;
11125;SDS011;5617;54.046;10.676;2022-10-16T06:41:53;2.40;;;1.43;;
11125;SDS011;5617;54.046;10.676;2022-10-16T06:44:01;1.63;;;1.40;;
11125;SDS011;5617;54.046;10.676;2022-10-16T06:46:12;2.07;;;1.30;;
11125;SDS011;5617;54.046;10.676;2022-10-16T06:48:23;2.20;;;1.40;;
11125;SDS011;5617;54.046;10.676;2022-10-16T06:50:32;2.03;;;1.27;;
11125;SDS011;5617;54.046;10.676;2022-10-16T06:52:39;2.53;;;1.40;;
11125;SDS011;5617;54.046;10.676;2022-10-16T06:54:47;1.40;;;1.30;;
11125;SDS011;5617;54.046;10.676;2022-10-16T06:56:55;2.37;;;1.20;;
11125;SDS011;5617;54.046;10.676;2022-10-16T06:59:02;3.20;;;1.20;;
11125;SDS011;5617;54.046;10.676;2022-10-16T07:01:11;2.63;;;1.40;;
11125;SDS011;5617;54.046;10.676;2022-10-16T07:03:21;1.33;;;1.23;;
11125;SDS011;5617;54.046;10.676;2022-10-16T07:05:31;3.57;;;1.37;;
11125;SDS011;5617;54.046;10.676;2022-10-16T07:07:40;4.30;;;1.73;;
11125;SDS011;5617;54.046;10.676;2022-10-16T07:09:47;3.93;;;1.50;;
11125;SDS011;5617;54.046;10.676;2022-10-16T07:11:55;4.03;;;1.70;;
11125;SDS011;5617;54.046;10.676;2022-10-16T07:14:03;3.87;;;1.50;;
11125;SDS011;5617;54.046;10.676;2022-10-16T07:16:11;2.33;;;1.50;;
11125;SDS011;5617;54.046;10.676;2022-10-16T07:18:22;3.00;;;1.70;;
11125;SDS011;5617;54.046;10.676;2022-10-16T07:20:32;2.57;;;1.57;;
11125;SDS011;5617;54.046;10.676;2022-10-16T07:22:41;2.87;;;1.80;;
11125;SDS011;5617;54.046;10.676;2022-10-16T07:24:48;2.50;;;1.50;;
11125;SDS011;5617;54.046;10.676;2022-10-16T07:26:57;3.77;;;1.47;;
11125;SDS011;5617;54.046;10.676;2022-10-16T07:29:06;3.53;;;1.93;;
11125;SDS011;5617;54.046;10.676;2022-10-16T07:31:19;1.73;;;1.20;;
11125;SDS011;5617;54.046;10.676;2022-10-16T07:33:29;2.50;;;1.47;;
11125;SDS011;5617;54.046;10.676;2022-10-16T07:35:37;3.73;;;1.30;;
11125;SDS011;5617;54.046;10.676;2022-10-16T07:37:44;2.87;;;1.30;;
11125;SDS011;5617;54.046;10.676;2022-10-16T07:39:53;3.03;;;1.10;;
11125;SDS011;5617;54.046;10.676;2022-10-16T07:42:01;2.20;;;1.20;;
11125;SDS011;5617;54.046;10.676;2022-10-16T07:44:09;2.20;;;1.30;;
11125;SDS011;5617;54.046;10.676;2022-10-16T07:46:17;4.03;;;1.20;;
11125;SDS011;5617;54.046;10.676;2022-10-16T07:48:27;2.17;;;1.30;;
11125;SDS011;5617;54.046;10.676;2022-10-16T07:50:37;3.23;;;1.30;;
11125;SDS011;5617;54.046;10.676;2022-10-16T07:52:45;1.60;;;1.10;;
11125;SDS011;5617;54.046;10.676;2022-10-16T07:54:53;3.13;;;1.20;;
11125;SDS011;5617;54.046;10.676;2022-10-16T07:57:00;2.97;;;1.00;;
11125;SDS011;5617;54.046;10.676;2022-10-16T07:59:09;1.77;;;1.07;;
11125;SDS011;5617;54.046;10.676;2022-10-16T08:01:17;1.97;;;1.30;;
11125;SDS011;5617;54.046;10.676;2022-10-16T08:03:25;1.40;;;1.30;;
11125;SDS011;5617;54.046;10.676;2022-10-16T08:05:34;1.77;;;1.17;;
11125;SDS011;5617;54.046;10.676;2022-10-16T08:07:42;3.47;;;1.40;;
11125;SDS011;5617;54.046;10.676;2022-10-16T08:09:55;1.70;;;1.27;;
11125;SDS011;5617;54.046;10.676;2022-10-16T08:12:04;2.07;;;1.20;;
11125;SDS011;5617;54.046;10.676;2022-10-16T08:14:11;1.07;;;1.00;;
11125;SDS011;5617;54.046;10.676;2022-10-16T08:16:19;2.37;;;1.03;;
11125;SDS011;5617;54.046;10.676;2022-10-16T08:18:27;1.63;;;1.17;;
11125;SDS011;5617;54.046;10.676;2022-10-16T08:20:37;2.03;;;1.20;;
11125;SDS011;5617;54.046;10.676;2022-10-16T08:22:45;1.83;;;1.13;;
11125;SDS011;5617;54.046;10.676;2022-10-16T08:24:53;1.57;;;1.17;;
11125;SDS011;5617;54.046;10.676;2022-10-16T08:27:01;1.50;;;1.40;;
11125;SDS011;5617;54.046;10.676;2022-10-16T08:29:08;1.43;;;1.13;;
11125;SDS011;5617;54.046;10.676;2022-10-16T08:31:16;2.70;;;1.10;;
11125;SDS011;5617;54.046;10.676;2022-10-16T08:33:24;1.40;;;1.10;;
11125;SDS011;5617;54.046;10.676;2022-10-16T08:35:32;2.73;;;1.27;;
11125;SDS011;5617;54.046;10.676;2022-10-16T08:37:41;1.33;;;1.17;;
11125;SDS011;5617;54.046;10.676;2022-10-16T08:39:50;1.73;;;1.20;;
11125;SDS011;5617;54.046;10.676;2022-10-16T08:42:06;1.87;;;1.23;;
11125;SDS011;5617;54.046;10.676;2022-10-16T08:44:25;2.13;;;1.20;;
11125;SDS011;5617;54.046;10.676;2022-10-16T08:46:43;1.27;;;1.10;;
11125;SDS011;5617;54.046;10.676;2022-10-16T08:49:01;1.27;;;1.20;;
11125;SDS011;5617;54.046;10.676;2022-10-16T08:51:15;2.77;;;1.20;;
11125;SDS011;5617;54.046;10.676;2022-10-16T08:53:30;1.20;;;1.10;;
11125;SDS011;5617;54.046;10.676;2022-10-16T08:55:45;1.93;;;1.40;;
11125;SDS011;5617;54.046;10.676;2022-10-16T08:57:56;1.97;;;1.40;;
11125;SDS011;5617;54.046;10.676;2022-10-16T09:00:08;1.37;;;1.10;;
11125;SDS011;5617;54.046;10.676;2022-10-16T09:02:24;1.93;;;1.50;;
11125;SDS011;5617;54.046;10.676;2022-10-16T09:04:45;1.93;;;1.40;;
11125;SDS011;5617;54.046;10.676;2022-10-16T09:07:01;1.40;;;1.30;;
11125;SDS011;5617;54.046;10.676;2022-10-16T09:09:24;1.40;;;1.17;;
11125;SDS011;5617;54.046;10.676;2022-10-16T09:11:43;3.10;;;1.43;;
11125;SDS011;5617;54.046;10.676;2022-10-16T09:13:57;2.53;;;1.40;;
11125;SDS011;5617;54.046;10.676;2022-10-16T09:16:13;3.03;;;1.30;;
11125;SDS011;5617;54.046;10.676;2022-10-16T09:18:28;2.10;;;1.37;;
11125;SDS011;5617;54.046;10.676;2022-10-16T09:20:49;1.83;;;1.40;;
11125;SDS011;5617;54.046;10.676;2022-10-16T09:23:00;2.50;;;1.30;;
11125;SDS011;5617;54.046;10.676;2022-10-16T09:25:21;1.70;;;1.27;;
11125;SDS011;5617;54.046;10.676;2022-10-16T09:27:29;2.60;;;1.40;;
11125;SDS011;5617;54.046;10.676;2022-10-16T09:29:37;1.87;;;1.20;;
11125;SDS011;5617;54.046;10.676;2022-10-16T09:31:46;1.53;;;1.00;;
11125;SDS011;5617;54.046;10.676;2022-10-16T09:33:57;1.70;;;1.30;;
11125;SDS011;5617;54.046;10.676;2022-10-16T09:36:08;4.03;;;1.40;;
11125;SDS011;5617;54.046;10.676;2022-10-16T09:38:24;1.37;;;1.13;;
11125;SDS011;5617;54.046;10.676;2022-10-16T09:40:36;2.77;;;1.20;;
11125;SDS011;5617;54.046;10.676;2022-10-16T09:42:45;2.20;;;1.10;;
11125;SDS011;5617;54.046;10.676;2022-10-16T09:44:53;2.67;;;1.20;;
11125;SDS011;5617;54.046;10.676;2022-10-16T09:47:01;1.73;;;1.30;;
11125;SDS011;5617;54.046;10.676;2022-10-16T09:49:18;2.10;;;1.10;;
11125;SDS011;5617;54.046;10.676;2022-10-16T09:51:29;2.87;;;1.50;;
11125;SDS011;5617;54.046;10.676;2022-10-16T09:53:39;1.57;;;1.30;;
11125;SDS011;5617;54.046;10.676;2022-10-16T09:55:50;2.33;;;1.30;;
11125;SDS011;5617;54.046;10.676;2022-10-16T09:57:59;2.93;;;1.17;;
11125;SDS011;5617;54.046;10.676;2022-10-16T10:00:08;3.40;;;1.30;;
11125;SDS011;5617;54.046;10.676;2022-10-16T10:02:17;1.87;;;1.10;;
11125;SDS011;5617;54.046;10.676;2022-10-16T10:04:26;2.27;;;1.10;;
11125;SDS011;5617;54.046;10.676;2022-10-16T10:06:47;1.33;;;0.90;;
11125;SDS011;5617;54.046;10.676;2022-10-16T10:08:56;1.40;;;1.20;;
11125;SDS011;5617;54.046;10.676;2022-10-16T10:11:12;1.10;;;1.00;;
11125;SDS011;5617;54.046;10.676;2022-10-16T10:13:20;0.90;;;0.73;;
11125;SDS011;5617;54.046;10.676;2022-10-16T10:15:33;2.00;;;1.17;;
11125;SDS011;5617;54.046;10.676;2022-10-16T10:17:45;2.00;;;0.90;;
11125;SDS011;5617;54.046;10.676;2022-10-16T10:19:55;1.47;;;1.10;;
11125;SDS011;5617;54.046;10.676;2022-10-16T10:22:11;3.20;;;1.20;;
11125;SDS011;5617;54.046;10.676;2022-10-16T10:24:23;3.30;;;1.00;;
11125;SDS011;5617;54.046;10.676;2022-10-16T10:26:33;4.20;;;1.27;;
11125;SDS011;5617;54.046;10.676;2022-10-16T10:28:47;1.93;;;1.10;;
11125;SDS011;5617;54.046;10.676;2022-10-16T10:31:06;3.17;;;0.90;;
11125;SDS011;5617;54.046;10.676;2022-10-16T10:33:20;1.73;;;0.90;;
11125;SDS011;5617;54.046;10.676;2022-10-16T10:35:37;4.53;;;1.17;;
11125;SDS011;5617;54.046;10.676;2022-10-16T10:37:54;2.07;;;0.90;;
11125;SDS011;5617;54.046;10.676;2022-10-16T10:40:13;2.07;;;1.03;;
11125;SDS011;5617;54.046;10.676;2022-10-16T10:42:31;1.97;;;0.80;;
11125;SDS011;5617;54.046;10.676;2022-10-16T10:44:49;3.07;;;0.90;;
11125;SDS011;5617;54.046;10.676;2022-10-16T10:47:05;3.10;;;1.00;;
11125;SDS011;5617;54.046;10.676;2022-10-16T10:49:26;2.37;;;0.90;;
11125;SDS011;5617;54.046;10.676;2022-10-16T10:51:46;1.30;;;0.80;;
11125;SDS011;5617;54.046;10.676;2022-10-16T10:54:10;2.00;;;0.90;;
11125;SDS011;5617;54.046;10.676;2022-10-16T10:56:26;1.07;;;0.80;;
11125;SDS011;5617;54.046;10.676;2022-10-16T10:58:58;2.33;;;1.00;;
11125;SDS011;5617;54.046;10.676;2022-10-16T11:01:14;1.67;;;0.80;;
11125;SDS011;5617;54.046;10.676;2022-10-16T11:03:28;2.30;;;1.00;;
11125;SDS011;5617;54.046;10.676;2022-10-16T11:05:48;1.83;;;1.00;;
11125;SDS011;5617;54.046;10.676;2022-10-16T11:07:58;3.77;;;0.90;;
11125;SDS011;5617;54.046;10.676;2022-10-16T11:10:12;1.80;;;0.80;;
11125;SDS011;5617;54.046;10.676;2022-10-16T11:12:24;3.10;;;0.80;;
11125;SDS011;5617;54.046;10.676;2022-10-16T11:14:39;0.83;;;0.60;;
11125;SDS011;5617;54.046;10.676;2022-10-16T11:16:51;3.77;;;0.87;;
11125;SDS011;5617;54.046;10.676;2022-10-16T11:19:03;4.20;;;0.80;;
11125;SDS011;5617;54.046;10.676;2022-10-16T11:21:25;1.33;;;0.73;;
11125;SDS011;5617;54.046;10.676;2022-10-16T11:23:37;1.70;;;0.70;;
11125;SDS011;5617;54.046;10.676;2022-10-16T11:25:48;1.53;;;0.87;;
11125;SDS011;5617;54.046;10.676;2022-10-16T11:28:00;2.97;;;0.90;;
11125;SDS011;5617;54.046;10.676;2022-10-16T11:30:14;1.90;;;0.80;;
11125;SDS011;5617;54.046;10.676;2022-10-16T11:32:27;3.90;;;0.97;;
11125;SDS011;5617;54.046;10.676;2022-10-16T11:34:41;2.60;;;0.70;;
11125;SDS011;5617;54.046;10.676;2022-10-16T11:36:56;3.40;;;0.90;;
11125;SDS011;5617;54.046;10.676;2022-10-16T11:39:14;1.33;;;0.83;;
11125;SDS011;5617;54.046;10.676;2022-10-16T11:41:27;4.00;;;0.80;;
11125;SDS011;5617;54.046;10.676;2022-10-16T11:43:42;2.00;;;0.70;;
11125;SDS011;5617;54.046;10.676;2022-10-16T11:45:58;1.43;;;0.87;;
11125;SDS011;5617;54.046;10.676;2022-10-16T11:48:15;1.63;;;0.90;;
11125;SDS011;5617;54.046;10.676;2022-10-16T11:50:29;4.67;;;1.10;;
11125;SDS011;5617;54.046;10.676;2022-10-16T11:52:40;1.23;;;0.70;;
11125;SDS011;5617;54.046;10.676;2022-10-16T11:54:57;4.80;;;0.90;;
11125;SDS011;5617;54.046;10.676;2022-10-16T11:57:12;2.63;;;0.73;;
11125;SDS011;5617;54.046;10.676;2022-10-16T11:59:23;1.83;;;0.90;;
11125;SDS011;5617;54.046;10.676;2022-10-16T12:01:40;2.43;;;0.80;;
11125;SDS011;5617;54.046;10.676;2022-10-16T12:03:58;2.73;;;0.93;;
11125;SDS011;5617;54.046;10.676;2022-10-16T12:06:22;3.30;;;1.00;;
11125;SDS011;5617;54.046;10.676;2022-10-16T12:08:35;1.97;;;0.90;;
11125;SDS011;5617;54.046;10.676;2022-10-16T12:10:44;1.87;;;1.00;;
11125;SDS011;5617;54.046;10.676;2022-10-16T12:12:53;2.83;;;0.83;;
11125;SDS011;5617;54.046;10.676;2022-10-16T12:15:03;2.90;;;0.80;;
11125;SDS011;5617;54.046;10.676;2022-10-16T12:17:33;1.40;;;0.70;;
11125;SDS011;5617;54.046;10.676;2022-10-16T12:19:42;3.17;;;0.90;;
11125;SDS011;5617;54.046;10.676;2022-10-16T12:21:50;3.87;;;0.83;;
11125;SDS011;5617;54.046;10.676;2022-10-16T12:24:01;4.20;;;1.57;;
11125;SDS011;5617;54.046;10.676;2022-10-16T12:26:11;1.30;;;0.70;;
11125;SDS011;5617;54.046;10.676;2022-10-16T12:28:19;1.13;;;0.50;;
11125;SDS011;5617;54.046;10.676;2022-10-16T12:30:29;1.17;;;0.70;;
11125;SDS011;5617;54.046;10.676;2022-10-16T12:32:40;1.50;;;0.90;;
11125;SDS011;5617;54.046;10.676;2022-10-16T12:34:48;2.40;;;0.80;;
11125;SDS011;5617;54.046;10.676;2022-10-16T12:37:07;2.20;;;0.93;;
11125;SDS011;5617;54.046;10.676;2022-10-16T12:39:20;2.33;;;0.80;;
11125;SDS011;5617;54.046;10.676;2022-10-16T12:41:30;2.07;;;0.90;;
11125;SDS011;5617;54.046;10.676;2022-10-16T12:43:39;2.10;;;0.90;;
11125;SDS011;5617;54.046;10.676;2022-10-16T12:45:58;1.17;;;0.73;;
11125;SDS011;5617;54.046;10.676;2022-10-16T12:48:19;1.90;;;0.87;;
11125;SDS011;5617;54.046;10.676;2022-10-16T12:50:30;2.43;;;0.90;;
11125;SDS011;5617;54.046;10.676;2022-10-16T12:52:40;2.30;;;0.90;;
11125;SDS011;5617;54.046;10.676;2022-10-16T12:54:50;3.10;;;0.80;;
11125;SDS011;5617;54.046;10.676;2022-10-16T12:57:02;3.13;;;0.97;;
11125;SDS011;5617;54.046;10.676;2022-10-16T12:59:35;2.60;;;1.07;;
11125;SDS011;5617;54.046;10.676;2022-10-16T13:02:00;2.10;;;0.70;;
11125;SDS011;5617;54.046;10.676;2022-10-16T13:04:31;2.53;;;0.90;;
11125;SDS011;5617;54.046;10.676;2022-10-16T13:06:49;1.73;;;0.70;;
11125;SDS011;5617;54.046;10.676;2022-10-16T13:09:09;1.53;;;0.70;;